sensor_id;sensor_type;location;lat;lon;timestamp;pressure;altitude;pressure_sealevel;temperature;humidity
30744;BME280;17486;46.738;7.622;2022-09-02T00:02:23;95122.38;;;19.12;55.51
30744;BME280;17486;46.738;7.622;2022-09-02T00:04:49;95125.00;;;19.12;55.35
30744;BME280;17486;46.738;7.622;2022-09-02T00:07:14;95119.31;;;19.07;55.21
30744;BME280;17486;46.738;7.622;2022-09-02T00:09:40;95094.84;;;18.95;55.23
30744;BME280;17486;46.738;7.622;2022-09-02T00:12:06;95089.94;;;18.90;55.27
30744;BME280;17486;46.738;7.622;2022-09-02T00:14:34;95104.97;;;18.99;55.15
30744;BME280;17486;46.738;7.622;2022-09-02T00:17:02;95104.06;;;18.89;55.40
30744;BME280;17486;46.738;7.622;2022-09-02T00:19:28;95097.63;;;18.82;55.40
30744;BME280;17486;46.738;7.622;2022-09-02T00:21:55;95119.00;;;18.79;55.49
30744;BME280;17486;46.738;7.622;2022-09-02T00:24:22;95091.94;;;18.55;55.62
30744;BME280;17486;46.738;7.622;2022-09-02T00:26:48;95097.06;;;18.57;55.77
30744;BME280;17486;46.738;7.622;2022-09-02T00:29:14;95118.91;;;18.69;55.82
30744;BME280;17486;46.738;7.622;2022-09-02T00:31:41;95103.75;;;18.61;55.73
30744;BME280;17486;46.738;7.622;2022-09-02T00:34:07;95114.59;;;18.68;55.70
30744;BME280;17486;46.738;7.622;2022-09-02T00:36:33;95096.72;;;18.62;55.78
30744;BME280;17486;46.738;7.622;2022-09-02T00:38:58;95112.09;;;18.66;55.95
30744;BME280;17486;46.738;7.622;2022-09-02T00:41:26;95109.97;;;18.60;55.79
30744;BME280;17486;46.738;7.622;2022-09-02T00:44:07;95087.44;;;18.46;55.85
30744;BME280;17486;46.738;7.622;2022-09-02T00:46:33;95077.28;;;18.42;55.86
30744;BME280;17486;46.738;7.622;2022-09-02T00:51:41;95107.28;;;18.50;55.86
30744;BME280;17486;46.738;7.622;2022-09-02T00:54:08;95100.22;;;18.51;55.77
30744;BME280;17486;46.738;7.622;2022-09-02T00:56:37;95105.75;;;18.48;55.92
30744;BME280;17486;46.738;7.622;2022-09-02T00:59:04;95105.03;;;18.46;55.94
30744;BME280;17486;46.738;7.622;2022-09-02T01:01:30;95111.03;;;18.48;56.10
30744;BME280;17486;46.738;7.622;2022-09-02T01:03:55;95086.69;;;18.34;56.12
30744;BME280;17486;46.738;7.622;2022-09-02T01:06:23;95082.41;;;18.22;56.06
30744;BME280;17486;46.738;7.622;2022-09-02T01:08:54;95107.28;;;18.29;56.07
30744;BME280;17486;46.738;7.622;2022-09-02T01:11:23;95106.69;;;18.26;56.33
30744;BME280;17486;46.738;7.622;2022-09-02T01:13:50;95091.59;;;18.06;56.62
30744;BME280;17486;46.738;7.622;2022-09-02T01:16:26;95071.31;;;17.86;56.88
30744;BME280;17486;46.738;7.622;2022-09-02T01:18:54;95093.41;;;17.95;57.29
30744;BME280;17486;46.738;7.622;2022-09-02T01:21:23;95097.97;;;17.93;57.54
30744;BME280;17486;46.738;7.622;2022-09-02T01:23:50;95100.34;;;17.96;57.53
30744;BME280;17486;46.738;7.622;2022-09-02T01:26:16;95102.84;;;17.97;57.69
30744;BME280;17486;46.738;7.622;2022-09-02T01:28:41;95099.25;;;17.98;57.19
30744;BME280;17486;46.738;7.622;2022-09-02T01:31:07;95105.47;;;17.97;57.56
30744;BME280;17486;46.738;7.622;2022-09-02T01:33:33;95078.47;;;17.84;57.46
30744;BME280;17486;46.738;7.622;2022-09-02T01:35:59;95067.25;;;17.82;57.84
30744;BME280;17486;46.738;7.622;2022-09-02T01:38:27;95076.31;;;17.89;57.37
30744;BME280;17486;46.738;7.622;2022-09-02T01:40:53;95111.34;;;18.01;57.17
30744;BME280;17486;46.738;7.622;2022-09-02T01:43:21;95110.53;;;18.00;57.44
30744;BME280;17486;46.738;7.622;2022-09-02T01:45:49;95084.94;;;17.91;57.44
30744;BME280;17486;46.738;7.622;2022-09-02T01:48:16;95098.44;;;17.98;57.41
30744;BME280;17486;46.738;7.622;2022-09-02T01:50:45;95071.06;;;17.78;57.59
30744;BME280;17486;46.738;7.622;2022-09-02T01:53:11;95100.34;;;17.96;57.60
30744;BME280;17486;46.738;7.622;2022-09-02T01:55:37;95108.13;;;17.97;57.50
30744;BME280;17486;46.738;7.622;2022-09-02T01:58:03;95104.91;;;17.94;57.45
30744;BME280;17486;46.738;7.622;2022-09-02T02:00:28;95108.59;;;17.91;57.46
30744;BME280;17486;46.738;7.622;2022-09-02T02:02:54;95077.81;;;17.70;57.72
30744;BME280;17486;46.738;7.622;2022-09-02T02:05:19;95077.09;;;17.68;57.59
30744;BME280;17486;46.738;7.622;2022-09-02T02:07:45;95086.28;;;17.74;57.67
30744;BME280;17486;46.738;7.622;2022-09-02T02:10:13;95116.97;;;17.85;57.81
30744;BME280;17486;46.738;7.622;2022-09-02T02:12:39;95067.09;;;17.62;57.74
30744;BME280;17486;46.738;7.622;2022-09-02T02:15:09;95103.25;;;17.81;57.82
30744;BME280;17486;46.738;7.622;2022-09-02T02:17:34;95106.00;;;17.80;57.79
30744;BME280;17486;46.738;7.622;2022-09-02T02:20:00;95099.06;;;17.79;57.78
30744;BME280;17486;46.738;7.622;2022-09-02T02:22:25;95094.31;;;17.72;57.88
30744;BME280;17486;46.738;7.622;2022-09-02T02:24:52;95087.38;;;17.60;57.91
30744;BME280;17486;46.738;7.622;2022-09-02T02:27:18;95088.59;;;17.67;58.14
30744;BME280;17486;46.738;7.622;2022-09-02T02:29:43;95102.31;;;17.71;58.04
30744;BME280;17486;46.738;7.622;2022-09-02T02:32:08;95111.19;;;17.70;57.77
30744;BME280;17486;46.738;7.622;2022-09-02T02:34:34;95078.56;;;17.50;57.88
30744;BME280;17486;46.738;7.622;2022-09-02T02:36:59;95098.50;;;17.64;57.96
30744;BME280;17486;46.738;7.622;2022-09-02T02:39:26;95104.38;;;17.67;57.80
30744;BME280;17486;46.738;7.622;2022-09-02T02:41:51;95073.31;;;17.50;57.88
30744;BME280;17486;46.738;7.622;2022-09-02T02:44:17;95078.44;;;17.51;57.53
30744;BME280;17486;46.738;7.622;2022-09-02T02:46:43;95103.31;;;17.59;57.96
30744;BME280;17486;46.738;7.622;2022-09-02T02:49:09;95078.59;;;17.38;57.79
30744;BME280;17486;46.738;7.622;2022-09-02T02:51:35;95109.91;;;17.53;57.84
30744;BME280;17486;46.738;7.622;2022-09-02T02:54:02;95104.38;;;17.45;58.24
30744;BME280;17486;46.738;7.622;2022-09-02T02:56:29;95081.25;;;17.27;58.41
30744;BME280;17486;46.738;7.622;2022-09-02T02:58:55;95102.38;;;17.37;58.15
30744;BME280;17486;46.738;7.622;2022-09-02T03:01:21;95106.53;;;17.39;58.59
30744;BME280;17486;46.738;7.622;2022-09-02T03:03:46;95086.84;;;17.22;58.21
30744;BME280;17486;46.738;7.622;2022-09-02T03:06:12;95110.25;;;17.37;58.31
30744;BME280;17486;46.738;7.622;2022-09-02T03:08:37;95104.41;;;17.33;58.51
30744;BME280;17486;46.738;7.622;2022-09-02T03:11:03;95107.28;;;17.30;58.53
30744;BME280;17486;46.738;7.622;2022-09-02T03:13:32;95113.47;;;17.29;58.50
30744;BME280;17486;46.738;7.622;2022-09-02T03:15:57;95114.22;;;17.31;58.72
30744;BME280;17486;46.738;7.622;2022-09-02T03:18:23;95104.16;;;17.25;58.53
30744;BME280;17486;46.738;7.622;2022-09-02T03:20:48;95102.63;;;17.22;58.59
30744;BME280;17486;46.738;7.622;2022-09-02T03:23:14;95098.22;;;17.23;58.39
30744;BME280;17486;46.738;7.622;2022-09-02T03:25:42;95081.75;;;17.10;58.91
30744;BME280;17486;46.738;7.622;2022-09-02T03:28:08;95110.16;;;17.27;58.81
30744;BME280;17486;46.738;7.622;2022-09-02T03:30:34;95097.97;;;17.26;58.77
30744;BME280;17486;46.738;7.622;2022-09-02T03:33:01;95103.47;;;17.23;58.77
30744;BME280;17486;46.738;7.622;2022-09-02T03:35:27;95092.00;;;17.13;58.98
30744;BME280;17486;46.738;7.622;2022-09-02T03:37:54;95077.31;;;16.99;59.12
30744;BME280;17486;46.738;7.622;2022-09-02T03:40:24;95105.75;;;17.16;59.21
30744;BME280;17486;46.738;7.622;2022-09-02T03:42:50;95099.50;;;17.17;59.20
30744;BME280;17486;46.738;7.622;2022-09-02T03:45:16;95102.03;;;17.19;59.17
30744;BME280;17486;46.738;7.622;2022-09-02T03:47:43;95096.78;;;17.19;59.27
30744;BME280;17486;46.738;7.622;2022-09-02T03:50:23;95085.88;;;17.12;59.12
30744;BME280;17486;46.738;7.622;2022-09-02T03:52:50;95108.13;;;17.19;59.34
30744;BME280;17486;46.738;7.622;2022-09-02T03:55:16;95100.50;;;17.16;59.24
30744;BME280;17486;46.738;7.622;2022-09-02T03:57:43;95092.00;;;17.13;59.46
30744;BME280;17486;46.738;7.622;2022-09-02T04:00:10;95095.59;;;17.12;58.98
30744;BME280;17486;46.738;7.622;2022-09-02T04:02:36;95064.41;;;16.96;59.12
30744;BME280;17486;46.738;7.622;2022-09-02T04:05:02;95070.28;;;16.99;59.06
30744;BME280;17486;46.738;7.622;2022-09-02T04:07:28;95088.91;;;17.07;59.34
30744;BME280;17486;46.738;7.622;2022-09-02T04:09:53;95090.31;;;17.12;59.58
30744;BME280;17486;46.738;7.622;2022-09-02T04:12:21;95057.59;;;16.93;59.58
30744;BME280;17486;46.738;7.622;2022-09-02T04:14:46;95051.63;;;16.91;59.35
30744;BME280;17486;46.738;7.622;2022-09-02T04:17:11;95093.19;;;17.09;59.42
30744;BME280;17486;46.738;7.622;2022-09-02T04:19:37;95089.16;;;17.04;59.39
30744;BME280;17486;46.738;7.622;2022-09-02T04:22:03;95074.22;;;17.05;59.36
30744;BME280;17486;46.738;7.622;2022-09-02T04:24:29;95063.94;;;17.02;59.60
30744;BME280;17486;46.738;7.622;2022-09-02T04:26:55;95050.81;;;16.90;59.41
30744;BME280;17486;46.738;7.622;2022-09-02T04:29:20;95073.94;;;17.08;59.31
30744;BME280;17486;46.738;7.622;2022-09-02T04:31:46;95044.91;;;16.87;59.41
30744;BME280;17486;46.738;7.622;2022-09-02T04:34:11;95051.03;;;16.87;59.35
30744;BME280;17486;46.738;7.622;2022-09-02T04:36:37;95056.88;;;16.91;59.26
30744;BME280;17486;46.738;7.622;2022-09-02T04:39:02;95059.00;;;16.86;59.15
30744;BME280;17486;46.738;7.622;2022-09-02T04:41:29;95074.09;;;16.95;59.69
30744;BME280;17486;46.738;7.622;2022-09-02T04:43:56;95044.66;;;16.67;59.22
30744;BME280;17486;46.738;7.622;2022-09-02T04:46:23;95076.31;;;16.77;59.74
30744;BME280;17486;46.738;7.622;2022-09-02T04:48:49;95072.16;;;16.74;59.91
30744;BME280;17486;46.738;7.622;2022-09-02T04:51:18;95050.41;;;16.61;60.09
30744;BME280;17486;46.738;7.622;2022-09-02T04:53:46;95062.56;;;16.62;60.18
30744;BME280;17486;46.738;7.622;2022-09-02T04:56:15;95091.47;;;16.73;59.92
30744;BME280;17486;46.738;7.622;2022-09-02T04:58:41;95057.56;;;16.59;60.08
30744;BME280;17486;46.738;7.622;2022-09-02T05:01:14;95084.53;;;16.72;59.94
30744;BME280;17486;46.738;7.622;2022-09-02T05:03:41;95087.78;;;16.76;60.07
30744;BME280;17486;46.738;7.622;2022-09-02T05:06:09;95052.31;;;16.59;59.79
30744;BME280;17486;46.738;7.622;2022-09-02T05:08:35;95085.97;;;16.77;60.06
30744;BME280;17486;46.738;7.622;2022-09-02T05:11:23;95054.19;;;16.57;60.36
30744;BME280;17486;46.738;7.622;2022-09-02T05:13:54;95066.53;;;16.68;60.26
30744;BME280;17486;46.738;7.622;2022-09-02T05:16:33;95062.69;;;16.61;60.21
30744;BME280;17486;46.738;7.622;2022-09-02T05:19:01;95085.88;;;16.78;60.28
30744;BME280;17486;46.738;7.622;2022-09-02T05:21:27;95087.16;;;16.72;60.21
30744;BME280;17486;46.738;7.622;2022-09-02T05:23:55;95054.94;;;16.59;60.16
30744;BME280;17486;46.738;7.622;2022-09-02T05:26:22;95089.34;;;16.79;60.16
30744;BME280;17486;46.738;7.622;2022-09-02T05:28:47;95066.63;;;16.66;59.91
30744;BME280;17486;46.738;7.622;2022-09-02T05:31:14;95055.28;;;16.66;59.68
30744;BME280;17486;46.738;7.622;2022-09-02T05:33:42;95073.56;;;16.79;59.67
30744;BME280;17486;46.738;7.622;2022-09-02T05:36:11;95089.44;;;16.88;59.86
30744;BME280;17486;46.738;7.622;2022-09-02T05:38:38;95089.44;;;16.88;59.75
30744;BME280;17486;46.738;7.622;2022-09-02T05:41:06;95080.88;;;16.86;59.46
30744;BME280;17486;46.738;7.622;2022-09-02T05:43:37;95092.00;;;16.90;59.69
30744;BME280;17486;46.738;7.622;2022-09-02T05:46:07;95084.13;;;16.90;59.47
30744;BME280;17486;46.738;7.622;2022-09-02T05:48:35;95064.38;;;16.73;59.70
30744;BME280;17486;46.738;7.622;2022-09-02T05:51:19;95087.88;;;16.86;59.74
30744;BME280;17486;46.738;7.622;2022-09-02T05:53:44;95093.16;;;16.86;59.83
30744;BME280;17486;46.738;7.622;2022-09-02T05:56:10;95064.47;;;16.71;59.47
30744;BME280;17486;46.738;7.622;2022-09-02T05:58:36;95089.09;;;16.82;59.87
30744;BME280;17486;46.738;7.622;2022-09-02T06:01:09;95087.19;;;16.84;60.06
30744;BME280;17486;46.738;7.622;2022-09-02T06:03:36;95063.53;;;16.72;59.74
30744;BME280;17486;46.738;7.622;2022-09-02T06:06:01;95088.41;;;16.91;60.08
30744;BME280;17486;46.738;7.622;2022-09-02T06:08:27;95084.00;;;16.92;60.04
30744;BME280;17486;46.738;7.622;2022-09-02T06:10:52;95084.84;;;16.92;60.03
30744;BME280;17486;46.738;7.622;2022-09-02T06:13:17;95083.50;;;16.86;60.03
30744;BME280;17486;46.738;7.622;2022-09-02T06:15:47;95073.94;;;16.85;60.34
30744;BME280;17486;46.738;7.622;2022-09-02T06:18:13;95063.78;;;16.81;60.25
30744;BME280;17486;46.738;7.622;2022-09-02T06:20:43;95078.38;;;16.96;60.18
30744;BME280;17486;46.738;7.622;2022-09-02T06:23:09;95104.66;;;17.07;60.38
30744;BME280;17486;46.738;7.622;2022-09-02T06:25:36;95086.88;;;17.11;59.94
30744;BME280;17486;46.738;7.622;2022-09-02T06:28:02;95063.69;;;17.05;59.95
30744;BME280;17486;46.738;7.622;2022-09-02T06:30:28;95062.38;;;17.11;59.79
30744;BME280;17486;46.738;7.622;2022-09-02T06:32:53;95084.94;;;17.36;59.47
30744;BME280;17486;46.738;7.622;2022-09-02T06:35:20;95057.84;;;17.24;59.58
30744;BME280;17486;46.738;7.622;2022-09-02T06:37:46;95059.00;;;17.31;59.11
30744;BME280;17486;46.738;7.622;2022-09-02T06:40:12;95053.28;;;17.37;58.76
30744;BME280;17486;46.738;7.622;2022-09-02T06:42:38;95084.06;;;17.58;58.61
30744;BME280;17486;46.738;7.622;2022-09-02T06:45:03;95057.06;;;17.45;58.26
30744;BME280;17486;46.738;7.622;2022-09-02T06:47:29;95077.59;;;17.62;57.91
30744;BME280;17486;46.738;7.622;2022-09-02T06:49:55;95070.53;;;17.63;58.16
30744;BME280;17486;46.738;7.622;2022-09-02T06:52:21;95076.38;;;17.66;58.19
30744;BME280;17486;46.738;7.622;2022-09-02T06:54:46;95041.13;;;17.57;57.98
30744;BME280;17486;46.738;7.622;2022-09-02T06:57:13;95068.34;;;17.79;57.79
30744;BME280;17486;46.738;7.622;2022-09-02T06:59:38;95056.50;;;17.73;57.74
30744;BME280;17486;46.738;7.622;2022-09-02T07:02:04;95035.72;;;17.70;57.58
30744;BME280;17486;46.738;7.622;2022-09-02T07:04:29;95068.78;;;17.96;57.58
30744;BME280;17486;46.738;7.622;2022-09-02T07:07:14;95061.47;;;17.99;57.59
30744;BME280;17486;46.738;7.622;2022-09-02T07:09:39;95071.28;;;17.97;57.87
30744;BME280;17486;46.738;7.622;2022-09-02T07:12:05;95059.78;;;17.98;57.89
30744;BME280;17486;46.738;7.622;2022-09-02T07:14:34;95037.69;;;17.89;57.62
30744;BME280;17486;46.738;7.622;2022-09-02T07:17:00;95062.13;;;18.13;57.39
30744;BME280;17486;46.738;7.622;2022-09-02T07:19:25;95064.00;;;18.22;56.64
30744;BME280;17486;46.738;7.622;2022-09-02T07:21:53;95034.97;;;18.12;56.68
30744;BME280;17486;46.738;7.622;2022-09-02T07:24:19;95066.75;;;18.42;56.29
30744;BME280;17486;46.738;7.622;2022-09-02T07:26:44;95063.09;;;18.54;56.12
30744;BME280;17486;46.738;7.622;2022-09-02T07:29:11;95060.91;;;18.59;55.85
30744;BME280;17486;46.738;7.622;2022-09-02T07:31:40;95074.44;;;18.76;55.65
30744;BME280;17486;46.738;7.622;2022-09-02T07:34:06;95068.78;;;18.80;55.40
30744;BME280;17486;46.738;7.622;2022-09-02T07:36:33;95052.31;;;18.88;55.53
30744;BME280;17486;46.738;7.622;2022-09-02T07:39:04;95032.03;;;18.79;55.54
30744;BME280;17486;46.738;7.622;2022-09-02T07:41:29;95057.28;;;19.02;55.24
30744;BME280;17486;46.738;7.622;2022-09-02T07:43:55;95054.22;;;19.07;54.90
30744;BME280;17486;46.738;7.622;2022-09-02T07:46:20;95053.25;;;19.08;55.01
30744;BME280;17486;46.738;7.622;2022-09-02T07:48:46;95032.31;;;19.07;55.00
30744;BME280;17486;46.738;7.622;2022-09-02T07:51:15;95032.75;;;19.12;54.97
30744;BME280;17486;46.738;7.622;2022-09-02T07:53:41;95035.09;;;19.15;55.03
30744;BME280;17486;46.738;7.622;2022-09-02T07:56:08;95051.69;;;19.36;55.03
30744;BME280;17486;46.738;7.622;2022-09-02T07:58:33;95043.50;;;19.39;55.19
30744;BME280;17486;46.738;7.622;2022-09-02T08:00:59;95069.34;;;19.55;55.02
30744;BME280;17486;46.738;7.622;2022-09-02T08:03:25;95032.13;;;19.49;54.96
30744;BME280;17486;46.738;7.622;2022-09-02T08:05:51;95033.81;;;19.60;54.74
30744;BME280;17486;46.738;7.622;2022-09-02T08:08:17;95049.44;;;19.82;54.33
30744;BME280;17486;46.738;7.622;2022-09-02T08:10:48;95050.13;;;19.94;54.55
30744;BME280;17486;46.738;7.622;2022-09-02T08:13:14;95051.66;;;20.07;54.47
30744;BME280;17486;46.738;7.622;2022-09-02T08:15:39;95050.56;;;20.19;54.14
30744;BME280;17486;46.738;7.622;2022-09-02T08:18:05;95041.94;;;20.17;53.67
30744;BME280;17486;46.738;7.622;2022-09-02T08:20:31;95055.25;;;20.35;53.45
30744;BME280;17486;46.738;7.622;2022-09-02T08:22:57;95036.22;;;20.31;53.62
30744;BME280;17486;46.738;7.622;2022-09-02T08:25:23;95048.97;;;20.46;53.60
30744;BME280;17486;46.738;7.622;2022-09-02T08:27:49;95031.91;;;20.40;53.13
30744;BME280;17486;46.738;7.622;2022-09-02T08:30:14;95045.75;;;20.62;52.82
30744;BME280;17486;46.738;7.622;2022-09-02T08:32:40;95023.53;;;20.54;52.47
30744;BME280;17486;46.738;7.622;2022-09-02T08:35:07;95042.41;;;20.79;52.51
30744;BME280;17486;46.738;7.622;2022-09-02T08:37:34;95029.72;;;20.83;52.56
30744;BME280;17486;46.738;7.622;2022-09-02T08:40:00;95037.31;;;20.96;52.57
30744;BME280;17486;46.738;7.622;2022-09-02T08:42:32;95010.38;;;20.92;52.06
30744;BME280;17486;46.738;7.622;2022-09-02T08:48:03;95030.53;;;21.21;52.36
30744;BME280;17486;46.738;7.622;2022-09-02T08:50:33;95040.75;;;21.34;51.93
30744;BME280;17486;46.738;7.622;2022-09-02T08:53:18;95040.94;;;21.50;51.92
30744;BME280;17486;46.738;7.622;2022-09-02T08:55:53;95030.03;;;21.63;51.34
30744;BME280;17486;46.738;7.622;2022-09-02T08:58:23;95011.19;;;21.66;51.37
30744;BME280;17486;46.738;7.622;2022-09-02T09:00:58;95034.97;;;21.94;51.28
30744;BME280;17486;46.738;7.622;2022-09-02T09:03:36;95040.72;;;22.08;50.89
30744;BME280;17486;46.738;7.622;2022-09-02T09:09:11;95013.97;;;22.19;50.60
30744;BME280;17486;46.738;7.622;2022-09-02T09:11:45;95015.69;;;22.28;50.15
30744;BME280;17486;46.738;7.622;2022-09-02T09:14:18;95037.38;;;22.42;49.91
30744;BME280;17486;46.738;7.622;2022-09-02T09:16:55;95024.13;;;22.42;48.70
30744;BME280;17486;46.738;7.622;2022-09-02T09:22:11;95020.41;;;22.52;48.30
30744;BME280;17486;46.738;7.622;2022-09-02T09:24:40;94998.66;;;22.49;48.13
30744;BME280;17486;46.738;7.622;2022-09-02T09:27:18;94996.75;;;22.59;47.71
30744;BME280;17486;46.738;7.622;2022-09-02T09:29:44;95008.13;;;22.78;47.31
30744;BME280;17486;46.738;7.622;2022-09-02T09:32:27;94998.50;;;22.77;47.34
30744;BME280;17486;46.738;7.622;2022-09-02T09:34:59;94978.78;;;22.79;47.36
30744;BME280;17486;46.738;7.622;2022-09-02T09:37:27;95006.28;;;23.05;46.74
30744;BME280;17486;46.738;7.622;2022-09-02T09:39:53;94977.38;;;23.01;46.62
30744;BME280;17486;46.738;7.622;2022-09-02T09:42:29;94969.03;;;23.14;46.63
30744;BME280;17486;46.738;7.622;2022-09-02T09:44:55;94975.56;;;23.37;46.16
30744;BME280;17486;46.738;7.622;2022-09-02T09:47:22;94970.59;;;23.50;45.59
30744;BME280;17486;46.738;7.622;2022-09-02T09:50:09;94961.84;;;23.66;45.60
30744;BME280;17486;46.738;7.622;2022-09-02T09:52:34;94983.31;;;23.97;45.12
30744;BME280;17486;46.738;7.622;2022-09-02T09:55:19;94982.66;;;24.12;44.49
30744;BME280;17486;46.738;7.622;2022-09-02T09:57:47;94977.97;;;24.22;44.71
30744;BME280;17486;46.738;7.622;2022-09-02T10:00:17;94986.47;;;24.42;44.18
30744;BME280;17486;46.738;7.622;2022-09-02T10:02:49;94961.53;;;24.35;43.21
30744;BME280;17486;46.738;7.622;2022-09-02T10:07:42;94973.97;;;24.59;42.35
30744;BME280;17486;46.738;7.622;2022-09-02T10:10:23;94954.53;;;24.50;43.21
30744;BME280;17486;46.738;7.622;2022-09-02T10:12:50;94968.47;;;24.69;43.10
30744;BME280;17486;46.738;7.622;2022-09-02T10:17:56;94969.44;;;24.85;42.38
30744;BME280;17486;46.738;7.622;2022-09-02T10:23:46;94944.69;;;24.76;43.22
30744;BME280;17486;46.738;7.622;2022-09-02T10:28:48;94966.22;;;24.97;43.31
30744;BME280;17486;46.738;7.622;2022-09-02T10:37:19;94965.59;;;25.35;43.43
30744;BME280;17486;46.738;7.622;2022-09-02T10:40:14;94963.44;;;25.62;42.48
30744;BME280;17486;46.738;7.622;2022-09-02T10:45:35;94965.50;;;26.21;41.13
30744;BME280;17486;46.738;7.622;2022-09-02T10:48:10;94958.22;;;26.53;40.80
30744;BME280;17486;46.738;7.622;2022-09-02T10:50:45;94959.28;;;26.82;39.67
30744;BME280;17486;46.738;7.622;2022-09-02T10:53:28;94960.00;;;27.06;38.60
30744;BME280;17486;46.738;7.622;2022-09-02T10:56:07;94945.69;;;27.28;38.45
30744;BME280;17486;46.738;7.622;2022-09-02T11:01:18;94936.91;;;27.50;37.28
30744;BME280;17486;46.738;7.622;2022-09-02T11:06:25;94939.31;;;27.44;37.76
30744;BME280;17486;46.738;7.622;2022-09-02T11:08:56;94935.66;;;27.30;38.10
30744;BME280;17486;46.738;7.622;2022-09-02T11:16:40;94910.44;;;27.18;38.93
30744;BME280;17486;46.738;7.622;2022-09-02T11:19:27;94929.41;;;27.23;38.97
30744;BME280;17486;46.738;7.622;2022-09-02T11:30:12;94911.38;;;27.10;39.88
30744;BME280;17486;46.738;7.622;2022-09-02T11:32:49;94899.50;;;27.13;39.73
30744;BME280;17486;46.738;7.622;2022-09-02T11:35:24;94907.69;;;27.26;39.63
30744;BME280;17486;46.738;7.622;2022-09-02T11:37:57;94893.38;;;27.34;39.61
30744;BME280;17486;46.738;7.622;2022-09-02T11:43:15;94864.75;;;27.65;38.90
30744;BME280;17486;46.738;7.622;2022-09-02T11:51:52;94904.03;;;28.71;37.49
30744;BME280;17486;46.738;7.622;2022-09-02T11:54:22;94904.53;;;28.88;36.43
30744;BME280;17486;46.738;7.622;2022-09-02T11:56:57;94894.53;;;29.10;36.21
30744;BME280;17486;46.738;7.622;2022-09-02T12:08:13;94905.00;;;29.53;35.36
30744;BME280;17486;46.738;7.622;2022-09-02T12:11:01;94902.28;;;29.40;35.48
30744;BME280;17486;46.738;7.622;2022-09-02T12:13:41;94899.53;;;29.26;35.10
30744;BME280;17486;46.738;7.622;2022-09-02T12:19:15;94896.13;;;28.98;35.36
30744;BME280;17486;46.738;7.622;2022-09-02T12:21:33;94891.91;;;28.75;36.09
30744;BME280;17486;46.738;7.622;2022-09-02T12:24:18;94880.19;;;28.48;36.40
30744;BME280;17486;46.738;7.622;2022-09-02T12:31:45;94877.97;;;28.23;36.74
30744;BME280;17486;46.738;7.622;2022-09-02T12:36:48;94857.31;;;28.10;37.02
30744;BME280;17486;46.738;7.622;2022-09-02T12:50:09;94855.75;;;28.01;37.47
30744;BME280;17486;46.738;7.622;2022-09-02T12:52:41;94855.28;;;27.90;37.81
30744;BME280;17486;46.738;7.622;2022-09-02T12:57:46;94858.69;;;27.77;38.10
30744;BME280;17486;46.738;7.622;2022-09-02T13:05:55;94876.63;;;28.05;38.31
30744;BME280;17486;46.738;7.622;2022-09-02T13:24:21;94828.59;;;26.89;46.08
30744;BME280;17486;46.738;7.622;2022-09-02T13:34:47;94875.59;;;26.45;49.28
30744;BME280;17486;46.738;7.622;2022-09-02T13:37:36;94871.47;;;26.27;49.25
30744;BME280;17486;46.738;7.622;2022-09-02T13:40:22;94842.19;;;25.89;50.54
30744;BME280;17486;46.738;7.622;2022-09-02T13:42:59;94877.81;;;25.88;51.60
30744;BME280;17486;46.738;7.622;2022-09-02T13:45:27;94878.00;;;25.63;52.20
30744;BME280;17486;46.738;7.622;2022-09-02T13:47:58;94921.00;;;25.60;51.90
30744;BME280;17486;46.738;7.622;2022-09-02T13:50:29;94919.91;;;25.46;52.40
30744;BME280;17486;46.738;7.622;2022-09-02T13:52:57;94938.16;;;25.26;46.37
30744;BME280;17486;46.738;7.622;2022-09-02T13:55:24;94916.72;;;24.88;40.49
30744;BME280;17486;46.738;7.622;2022-09-02T13:57:57;94961.81;;;24.73;44.30
30744;BME280;17486;46.738;7.622;2022-09-02T14:00:34;94929.47;;;24.28;46.33
30744;BME280;17486;46.738;7.622;2022-09-02T14:03:12;94956.72;;;24.22;47.14
30744;BME280;17486;46.738;7.622;2022-09-02T14:05:40;95001.75;;;23.31;49.69
30744;BME280;17486;46.738;7.622;2022-09-02T14:08:12;94977.81;;;22.89;49.89
30744;BME280;17486;46.738;7.622;2022-09-02T14:10:39;94937.38;;;22.26;50.71
30744;BME280;17486;46.738;7.622;2022-09-02T14:13:07;94969.09;;;22.17;50.02
30744;BME280;17486;46.738;7.622;2022-09-02T14:15:34;94968.53;;;21.88;50.61
30744;BME280;17486;46.738;7.622;2022-09-02T14:20:31;94968.47;;;21.61;53.24
30744;BME280;17486;46.738;7.622;2022-09-02T14:22:58;94987.97;;;21.60;54.46
30744;BME280;17486;46.738;7.622;2022-09-02T14:25:25;94942.75;;;21.35;55.16
30744;BME280;17486;46.738;7.622;2022-09-02T14:27:58;94962.13;;;21.54;55.87
30744;BME280;17486;46.738;7.622;2022-09-02T14:30:40;94968.09;;;21.56;55.27
30744;BME280;17486;46.738;7.622;2022-09-02T14:38:54;94939.03;;;21.28;56.37
30744;BME280;17486;46.738;7.622;2022-09-02T14:41:24;94983.97;;;21.56;57.24
30744;BME280;17486;46.738;7.622;2022-09-02T14:44:08;94986.84;;;21.63;56.83
30744;BME280;17486;46.738;7.622;2022-09-02T14:46:43;94972.47;;;21.65;56.39
30744;BME280;17486;46.738;7.622;2022-09-02T14:49:35;94983.91;;;21.84;57.20
30744;BME280;17486;46.738;7.622;2022-09-02T14:52:17;94976.34;;;21.89;56.38
30744;BME280;17486;46.738;7.622;2022-09-02T14:54:45;94977.06;;;21.99;56.95
30744;BME280;17486;46.738;7.622;2022-09-02T14:59:56;94960.53;;;22.42;57.48
30744;BME280;17486;46.738;7.622;2022-09-02T15:04:53;94945.00;;;22.81;54.16
30744;BME280;17486;46.738;7.622;2022-09-02T15:07:19;94936.72;;;22.84;53.38
30744;BME280;17486;46.738;7.622;2022-09-02T15:09:45;94923.84;;;22.98;53.71
30744;BME280;17486;46.738;7.622;2022-09-02T15:12:11;94951.97;;;23.25;52.42
30744;BME280;17486;46.738;7.622;2022-09-02T15:14:37;94930.97;;;23.06;51.86
30744;BME280;17486;46.738;7.622;2022-09-02T15:17:06;94949.91;;;23.11;51.91
30744;BME280;17486;46.738;7.622;2022-09-02T15:19:33;94963.91;;;22.87;53.18
30744;BME280;17486;46.738;7.622;2022-09-02T15:21:58;94963.41;;;22.83;52.92
30744;BME280;17486;46.738;7.622;2022-09-02T15:24:24;94961.03;;;22.72;52.82